Accueil
METAR-TAF:

METAR-TAF

Aéroports :

Flessingue, Pays-Bas

latitude: 51-27N, longitude: 3-36E, altitude: 10 m

Observation

Le bulletin a été fait il y a 18 minutes, à 18:25 UTC
Vent 3 kt de est/sud-est, variant entre est/nord-est et sud-est
Température 15°C
Humidité 82%
Pression 1018 hPa
Visibilité 10 km ou plus

METAR: EHFS 171825Z AUTO 11003KT 070V140 9999 OVC036/// 15/12 Q1018

Heure: 20:43 (18:43 UTC)


TAF: absent

Observations et prévisions météorologiques de plus de 4000 aéroports (messages METAR et TAF).

Les stations disponibles sont représentées par des disques jaunes et rouges sur la carte.

Passer la souris dessus pour voir le nom de la station.

Cliquer dessus pour voir les observations et prévisions météorologiques.

Pour changer de carte: cliquez sur les boutons verts avec une croix noire pour zoomer, sur le bouton vert avec un tiret pour effectuer un zoom arrière, ou sur les flèches vertes pour les cartes adjacentes.


METAR-TAF: